Ana Sayfa
METAR-TAF:

METAR-TAF

Havaalanları :

Çanakkale Havalimanı

Çanakkale, Türkiye

Enlem: 40-08N, Boylam: 026-24E, yükseklik: 3 m

Güncel hava durumu gözlemi

Rapor saat 04:50 UTC de 1 saat ve 23 dakika önce yapıldı.
Rüzgar doğu/kuzeydoğudan 3 kt, kuzey/kuzeydoğu ve doğu arasında değişken
Sıcaklık 12°C
Nem 94%
Basınç 1018 hPa
Görüş mesafesi: 7000 m

METAR: LTBH 180450Z 06003KT 020V100 7000 NSC 12/11 Q1018

Saat: 09:13 (06:13 UTC)

Tahmin

Rapor saat 04:40 UTC de 1 saat ve 33 dakika önce yapıldı.
Ayın 18'si saat 06 UTC'den ayın 18'si saat 15 UTC'ye kadar geçerli Tahmin
Rüzgar kuzeydoğudan 8 kt
Görüş mesafesi 10 km veya daha fazla
3500 ft yükseklikte parçalı bulutlu
10000 ft yükseklikte parçalı çok bulutlu
Geçici
ayın 18'si saat 10 UTC'den ayın 18'si saat 14 UTC'ye kadar
hafif sağanak yağmurlar

TAF: LTBH 180440Z 1806/1815 05008KT 9999 SCT035 BKN100 TEMPO 1810/1814 -SHRA

4.000'den fazla havaalanı için hava durumu gözlemleri ve tahminleri (METAR ve TAF raporları).

Kullanılabilir istasyonlar harita üzerinde sarı ve kırmızı noktalarla gösterilir.

İstasyonun adını görmek için fareyi noktanın üzerinde gezdirin.

Sonrasında hava gözlem ve tahminlerini görmek için tıklayın.

Haritayı değiştirmek için: yaklaştırmak için siyah artı işaretli yeşil düğmeye ve uzaklaştırmak için de eksi işaretli düğmeye hızla tıklayın; bitişik haritalar için yeşil okları kullanın.


METAR-TAF: